(°C)
22°
23°
24°
26°
26°
27°
28°
(°C)
22°
23°
24°
26°
26°
27°
26°
ЮЗ
ЮЗ
ЮЗ
ЗЮЗ
ЗЮЗ
ЗЮЗ
ЗЮЗ
(км/ч)
9-19
10-22
10-23
10-22
10-21
10-20
11-23
(мм)
0
0
0
0
0.8
0
0
(%)
12
13
13
26
44
27
18

Высота солнцестояния

/ 36.6°
sun-icon
UV 5
04:31
22:01
Прибывающая луна (70°)
10:14
01:26

METAR для 55.27°С 86.11°В (UNEE)

Время Условия Температура/
Точка росы
Ветер Видимость Погода Облачность Давление Изменить Необработанный
VFR 21°C / 14°C 200º 8kt >10km - Few Clouds 2600ft 1012 No Significant change UNEE 160200Z 20004MPS 9999 FEW026 21/14 Q1012 R23/CLRD60 NOSIG RMK QFE736
VFR 20°C / 14°C 200º 6kt >10km - Few Clouds 2000ft 1012 No Significant change UNEE 160130Z 20003MPS 9999 FEW020 20/14 Q1012 R23/CLRD60 NOSIG RMK QFE736
VFR 20°C / 14°C 180º 6kt >10km - Few Clouds 2000ft 1012 No Significant change UNEE 160100Z 18003MPS 9999 FEW020 20/14 Q1012 R23/CLRD60 NOSIG RMK QFE736
VFR 19°C / 13°C 190º 6kt >10km - Few Clouds 2000ft 1012 No Significant change UNEE 160030Z 19003MPS 9999 FEW020 19/13 Q1012 R23/CLRD60 NOSIG RMK QFE736
VFR 18°C / 13°C 180º 8kt >10km - Clouds and Visibility OK 1012 No Significant change UNEE 160000Z 18004MPS CAVOK 18/13 Q1012 R23/CLRD60 NOSIG RMK QFE736
VFR 17°C / 13°C 180º 6kt >10km - Clouds and Visibility OK 1012 No Significant change UNEE 152330Z 18003MPS CAVOK 17/13 Q1012 R23/CLRD60 NOSIG RMK QFE736
VFR 15°C / 12°C 170º 6kt >10km - Clouds and Visibility OK 1012 No Significant change UNEE 152300Z 17003MPS CAVOK 15/12 Q1012 R23/CLRD60 NOSIG RMK QFE736
VFR 16°C / 12°C 180º 8kt >10km - Few Clouds 3300ft 1012 No Significant change UNEE 152230Z 18004MPS 9999 FEW033CB 16/12 Q1012 R23/CLRD60 NOSIG RMK QFE736
VFR 16°C / 11°C 180º 6kt >10km - Few Clouds 3300ft 1012 No Significant change UNEE 152200Z 18003MPS 9999 FEW033CB 16/11 Q1012 R23/CLRD60 NOSIG RMK QFE736
VFR 15°C / 12°C 170º 8kt >10km - Scattered Clouds 3300ft 1012 No Significant change UNEE 152130Z 17004MPS 9999 SCT033CB 15/12 Q1012 R23/CLRD60 NOSIG RMK QFE736
VFR 15°C / 13°C 160º 6kt >10km - Scattered Clouds 3300ft 1012 No Significant change UNEE 152100Z 16003MPS 9999 SCT033CB 15/13 Q1012 R23/CLRD60 NOSIG RMK QFE736
VFR 16°C / 13°C 140º 4kt >10km - Scattered Clouds 3300ft 1012 No Significant change UNEE 152030Z 14002MPS 9999 SCT033CB 16/13 Q1012 R23/CLRD60 NOSIG RMK QFE736
VFR 16°C / 12°C 60º 2kt >10km Thunderstorm Vertical Visibility of 0ft. 1012 No Significant change UNEE 152000Z 06001MPS 9999 TS SCT033CB 16/12 Q1012 R23/CLRD60 NOSIG RMK QFE736
VFR 18°C / 13°C 350º variable 310º to 040º 8kt >10km Light Thunderstorm Rain 3.00mm precipitation Vertical Visibility of 0ft. 1013 No Significant change UNEE 151930Z 35004MPS 310V040 9999 -TSRA SCT033CB 18/13 Q1013 R23/CLRD60 NOSIG RMK QFE737
VFR 18°C / 12°C 260º variable 240º to 340º 6kt >10km Thunderstorm Vertical Visibility of 0ft. 1012 No Significant change UNEE 151900Z 26003MPS 240V340 9999 TS SCT033CB 18/12 Q1012 R23/CLRD60 NOSIG RMK QFE736
VFR 19°C / 12°C 250º 10kt >10km Thunderstorm Vertical Visibility of 0ft. 1012 No Significant change UNEE 151830Z 25005MPS 9999 TS SCT033CB 19/12 Q1012 R23/CLRD60 NOSIG RMK QFE736
VFR 19°C / 12°C 230º 10kt >10km Thunderstorm Vertical Visibility of 0ft. 1012 No Significant change UNEE 151800Z 23005MPS 9999 TS SCT033CB 19/12 Q1012 R23/CLRD60 NOSIG RMK QFE736
VFR 19°C / 12°C 230º 8kt >10km Thunderstorm Vertical Visibility of 0ft. 1012 No Significant change UNEE 151730Z 23004MPS 9999 TS SCT033CB 19/12 Q1012 R23/CLRD60 NOSIG RMK QFE736
VFR 19°C / 12°C 230º 10kt >10km - Scattered Clouds 3300ft 1012 No Significant change UNEE 151700Z 23005MPS 9999 SCT033CB 19/12 Q1012 R23/CLRD60 NOSIG RMK QFE736
VFR 19°C / 12°C 220º 10kt >10km - Scattered Clouds 3300ft 1012 No Significant change UNEE 151630Z 22005MPS 9999 SCT033CB 19/12 Q1012 R23/CLRD60 NOSIG RMK QFE736
VFR 20°C / 12°C 220º 10kt >10km - Clouds and Visibility OK 1013 No Significant change UNEE 151600Z 22005MPS CAVOK 20/12 Q1013 R23/CLRD60 NOSIG RMK QFE737
VFR 20°C / 11°C 200º 8kt >10km - Clouds and Visibility OK 1013 No Significant change UNEE 151530Z 20004MPS CAVOK 20/11 Q1013 R23/CLRD60 NOSIG RMK QFE737
VFR 20°C / 11°C 190º 6kt >10km - Clouds and Visibility OK 1013 No Significant change UNEE 151500Z 19003MPS CAVOK 20/11 Q1013 R23/CLRD60 NOSIG RMK QFE737
VFR 20°C / 11°C 180º 6kt >10km - Clouds and Visibility OK 1013 No Significant change UNEE 151430Z 18003MPS CAVOK 20/11 Q1013 R23/CLRD60 NOSIG RMK QFE737

VFR

21°C / 14°C

[Больше]
Ветер 200º 8kt
Видимость >10km
Погода -
Облачность Few Clouds 2600ft
Давление 1012
Изменить No Significant change
Необработанный UNEE 160200Z 20004MPS 9999 FEW026 21/14 Q1012 R23/CLRD60 NOSIG RMK QFE736

VFR

20°C / 14°C

[Больше]
Ветер 200º 6kt
Видимость >10km
Погода -
Облачность Few Clouds 2000ft
Давление 1012
Изменить No Significant change
Необработанный UNEE 160130Z 20003MPS 9999 FEW020 20/14 Q1012 R23/CLRD60 NOSIG RMK QFE736

VFR

20°C / 14°C

[Больше]
Ветер 180º 6kt
Видимость >10km
Погода -
Облачность Few Clouds 2000ft
Давление 1012
Изменить No Significant change
Необработанный UNEE 160100Z 18003MPS 9999 FEW020 20/14 Q1012 R23/CLRD60 NOSIG RMK QFE736

VFR

19°C / 13°C

[Больше]
Ветер 190º 6kt
Видимость >10km
Погода -
Облачность Few Clouds 2000ft
Давление 1012
Изменить No Significant change
Необработанный UNEE 160030Z 19003MPS 9999 FEW020 19/13 Q1012 R23/CLRD60 NOSIG RMK QFE736

VFR

18°C / 13°C

[Больше]
Ветер 180º 8kt
Видимость >10km
Погода -
Облачность Clouds and Visibility OK
Давление 1012
Изменить No Significant change
Необработанный UNEE 160000Z 18004MPS CAVOK 18/13 Q1012 R23/CLRD60 NOSIG RMK QFE736

VFR

17°C / 13°C

[Больше]
Ветер 180º 6kt
Видимость >10km
Погода -
Облачность Clouds and Visibility OK
Давление 1012
Изменить No Significant change
Необработанный UNEE 152330Z 18003MPS CAVOK 17/13 Q1012 R23/CLRD60 NOSIG RMK QFE736

VFR

15°C / 12°C

[Больше]
Ветер 170º 6kt
Видимость >10km
Погода -
Облачность Clouds and Visibility OK
Давление 1012
Изменить No Significant change
Необработанный UNEE 152300Z 17003MPS CAVOK 15/12 Q1012 R23/CLRD60 NOSIG RMK QFE736

VFR

16°C / 12°C

[Больше]
Ветер 180º 8kt
Видимость >10km
Погода -
Облачность Few Clouds 3300ft
Давление 1012
Изменить No Significant change
Необработанный UNEE 152230Z 18004MPS 9999 FEW033CB 16/12 Q1012 R23/CLRD60 NOSIG RMK QFE736

VFR

16°C / 11°C

[Больше]
Ветер 180º 6kt
Видимость >10km
Погода -
Облачность Few Clouds 3300ft
Давление 1012
Изменить No Significant change
Необработанный UNEE 152200Z 18003MPS 9999 FEW033CB 16/11 Q1012 R23/CLRD60 NOSIG RMK QFE736

VFR

15°C / 12°C

[Больше]
Ветер 170º 8kt
Видимость >10km
Погода -
Облачность Scattered Clouds 3300ft
Давление 1012
Изменить No Significant change
Необработанный UNEE 152130Z 17004MPS 9999 SCT033CB 15/12 Q1012 R23/CLRD60 NOSIG RMK QFE736

VFR

15°C / 13°C

[Больше]
Ветер 160º 6kt
Видимость >10km
Погода -
Облачность Scattered Clouds 3300ft
Давление 1012
Изменить No Significant change
Необработанный UNEE 152100Z 16003MPS 9999 SCT033CB 15/13 Q1012 R23/CLRD60 NOSIG RMK QFE736

VFR

16°C / 13°C

[Больше]
Ветер 140º 4kt
Видимость >10km
Погода -
Облачность Scattered Clouds 3300ft
Давление 1012
Изменить No Significant change
Необработанный UNEE 152030Z 14002MPS 9999 SCT033CB 16/13 Q1012 R23/CLRD60 NOSIG RMK QFE736

VFR

16°C / 12°C

[Больше]
Ветер 60º 2kt
Видимость >10km
Погода Thunderstorm
Облачность Vertical Visibility of 0ft.
Давление 1012
Изменить No Significant change
Необработанный UNEE 152000Z 06001MPS 9999 TS SCT033CB 16/12 Q1012 R23/CLRD60 NOSIG RMK QFE736

VFR

18°C / 13°C

[Больше]
Ветер 350º variable 310º to 040º 8kt
Видимость >10km
Погода Light Thunderstorm Rain 3.00mm precipitation
Облачность Vertical Visibility of 0ft.
Давление 1013
Изменить No Significant change
Необработанный UNEE 151930Z 35004MPS 310V040 9999 -TSRA SCT033CB 18/13 Q1013 R23/CLRD60 NOSIG RMK QFE737

VFR

18°C / 12°C

[Больше]
Ветер 260º variable 240º to 340º 6kt
Видимость >10km
Погода Thunderstorm
Облачность Vertical Visibility of 0ft.
Давление 1012
Изменить No Significant change
Необработанный UNEE 151900Z 26003MPS 240V340 9999 TS SCT033CB 18/12 Q1012 R23/CLRD60 NOSIG RMK QFE736

VFR

19°C / 12°C

[Больше]
Ветер 250º 10kt
Видимость >10km
Погода Thunderstorm
Облачность Vertical Visibility of 0ft.
Давление 1012
Изменить No Significant change
Необработанный UNEE 151830Z 25005MPS 9999 TS SCT033CB 19/12 Q1012 R23/CLRD60 NOSIG RMK QFE736

VFR

19°C / 12°C

[Больше]
Ветер 230º 10kt
Видимость >10km
Погода Thunderstorm
Облачность Vertical Visibility of 0ft.
Давление 1012
Изменить No Significant change
Необработанный UNEE 151800Z 23005MPS 9999 TS SCT033CB 19/12 Q1012 R23/CLRD60 NOSIG RMK QFE736

VFR

19°C / 12°C

[Больше]
Ветер 230º 8kt
Видимость >10km
Погода Thunderstorm
Облачность Vertical Visibility of 0ft.
Давление 1012
Изменить No Significant change
Необработанный UNEE 151730Z 23004MPS 9999 TS SCT033CB 19/12 Q1012 R23/CLRD60 NOSIG RMK QFE736

VFR

19°C / 12°C

[Больше]
Ветер 230º 10kt
Видимость >10km
Погода -
Облачность Scattered Clouds 3300ft
Давление 1012
Изменить No Significant change
Необработанный UNEE 151700Z 23005MPS 9999 SCT033CB 19/12 Q1012 R23/CLRD60 NOSIG RMK QFE736

VFR

19°C / 12°C

[Больше]
Ветер 220º 10kt
Видимость >10km
Погода -
Облачность Scattered Clouds 3300ft
Давление 1012
Изменить No Significant change
Необработанный UNEE 151630Z 22005MPS 9999 SCT033CB 19/12 Q1012 R23/CLRD60 NOSIG RMK QFE736

VFR

20°C / 12°C

[Больше]
Ветер 220º 10kt
Видимость >10km
Погода -
Облачность Clouds and Visibility OK
Давление 1013
Изменить No Significant change
Необработанный UNEE 151600Z 22005MPS CAVOK 20/12 Q1013 R23/CLRD60 NOSIG RMK QFE737

VFR

20°C / 11°C

[Больше]
Ветер 200º 8kt
Видимость >10km
Погода -
Облачность Clouds and Visibility OK
Давление 1013
Изменить No Significant change
Необработанный UNEE 151530Z 20004MPS CAVOK 20/11 Q1013 R23/CLRD60 NOSIG RMK QFE737

VFR

20°C / 11°C

[Больше]
Ветер 190º 6kt
Видимость >10km
Погода -
Облачность Clouds and Visibility OK
Давление 1013
Изменить No Significant change
Необработанный UNEE 151500Z 19003MPS CAVOK 20/11 Q1013 R23/CLRD60 NOSIG RMK QFE737

VFR

20°C / 11°C

[Больше]
Ветер 180º 6kt
Видимость >10km
Погода -
Облачность Clouds and Visibility OK
Давление 1013
Изменить No Significant change
Необработанный UNEE 151430Z 18003MPS CAVOK 20/11 Q1013 R23/CLRD60 NOSIG RMK QFE737

TAF для 55.27°С 86.11°В (UNEE)

From till


From till Wind 150º 6kt. Gust 16kt. Visibility 10km or more. Broken Clouds 4000ft.
Temporarly from till Wind 230º 12kt. Gust 29kt. Light Thunderstorm Rain . Scattered Clouds 1600ft.

Необработанный: TAF UNEE 152300Z 1600/1624 15003G08MPS 9999 BKN040CB TEMPO 1605/1615 23006G15MPS -TSRA SCT016CB

rainNOW

0.0 мм
0.0 мм
0.0 мм
0.0 мм
0.0 мм
0.0 мм
0.0 мм
0.0 мм
0.0 мм
0.0 мм
0.0 мм
0.0 мм

Текущие спутниковые изображения и снимки дождя для 55.27°С 86.11°В

Указатель местности находится на 55.27°С 86.11°В. [Больше]

Спутниковое изображение в реальном времени сочетает в себе видимый свет в дневное время с инфракрасным излучением в ночное время. Ночью изображение получается не темным, так как инфракрасное излучение может обнаружить разницу температур. К сожалению, низкие облака и туман трудно отличить от температуры у поверхности земли и поэтому могут быть почти незаметны ночью. Спутниковые снимки Meteosat для Европы обновляются каждые 5 минут в режиме реального времени.Снимки GOES-16/GOES-17 (Северная и Южная Америка) и Химавари (Азия) обновляются каждые 10 минут.

Копирайт 2021 EUMETSAT / meteoblue. / Копирайт 2021 meteoblue

Радарный и сверхкраткосрочный прогноз осадков для 55.27°С 86.11°В

Индикатор местности находится на 55.27°С 86.11°В. Анимация показывает радар осадков за последний час, а также прогноз погоды для1h. Умеренная морось или легкий снег могут быть незаметны для радара. Интенсивность осадковмаркированна цветной кодировкой, начиная со светло-синего и заканчивая темно-пурпурным.